Time;durP1;ratioP1;P1;durP2;ratioP2;P2;SDS_P1;SDS_P2;PMS_P1;PMS_P2;Temp;Humidity;BMP_temperature;BMP_pressure;BME280_temperature;BME280_humidity;BME280_pressure;Samples;Min_cycle;Max_cycle;Signal;HPM_P1;HPM_P2
2024/01/17 00:00:26;;;;;;;214.02;101.38;;;;;;;5.57;78.74;100682.88;4947128;28;20112;-80
2024/01/17 00:02:55;;;;;;;221.55;101.13;;;;;;;5.79;78.16;100693.63;4935254;28;20408;-81
2024/01/17 00:05:25;;;;;;;221.32;102.78;;;;;;;5.56;78.69;100662.75;4932524;28;20081;-80
2024/01/17 00:07:54;;;;;;;210.77;101.32;;;;;;;5.66;78.30;100687.53;4940386;28;20260;-80
2024/01/17 00:10:22;;;;;;;210.63;100.50;;;;;;;5.61;78.63;100680.84;4922002;28;20056;-81
2024/01/17 00:12:49;;;;;;;221.00;98.47;;;;;;;5.74;77.97;100693.09;4952139;28;20046;-81
2024/01/17 00:15:23;;;;;;;220.68;102.75;;;;;;;5.65;78.18;100683.19;4953689;28;20422;-82
2024/01/17 00:17:51;;;;;;;214.02;101.05;;;;;;;5.64;78.46;100684.16;4933732;28;20060;-82
2024/01/17 00:20:22;;;;;;;223.07;99.30;;;;;;;5.31;78.55;100630.13;4929940;28;20312;-82
2024/01/17 00:22:50;;;;;;;213.35;100.60;;;;;;;5.46;78.52;100652.00;4951585;28;20049;-81
2024/01/17 00:25:17;;;;;;;219.63;99.53;;;;;;;5.42;78.65;100650.50;4930386;28;20060;-83
2024/01/17 00:27:49;;;;;;;215.63;104.78;;;;;;;5.43;78.46;100636.38;4948260;28;20057;-81
2024/01/17 00:30:16;;;;;;;225.10;102.43;;;;;;;5.58;78.69;100658.22;4934896;28;20104;-80
2024/01/17 00:32:43;;;;;;;214.25;101.05;;;;;;;5.64;78.15;100670.97;4928484;28;20150;-80
2024/01/17 00:35:14;;;;;;;218.52;100.32;;;;;;;5.62;78.54;100657.06;4936665;28;20115;-82
2024/01/17 00:37:41;;;;;;;214.95;102.75;;;;;;;5.60;78.44;100648.41;4941320;28;20565;-80
2024/01/17 00:40:21;;;;;;;217.05;101.75;;;;;;;5.27;78.18;100589.19;4951574;28;20057;-82
2024/01/17 00:42:49;;;;;;;219.30;100.25;;;;;;;5.45;78.51;100620.50;4931824;28;20049;-80
2024/01/17 00:45:16;;;;;;;217.07;103.10;;;;;;;5.24;78.34;100584.13;4943782;28;20323;-78
2024/01/17 00:47:47;;;;;;;229.45;106.15;;;;;;;5.62;78.50;100630.72;4956949;28;20076;-81
2024/01/17 00:50:20;;;;;;;212.68;98.90;;;;;;;5.65;78.31;100633.13;4942661;28;20916;-82
2024/01/17 00:52:54;;;;;;;220.90;102.07;;;;;;;5.47;78.52;100602.81;4947081;28;20065;-81
2024/01/17 00:55:23;;;;;;;213.30;100.40;;;;;;;5.62;78.15;100617.56;4962225;28;20569;-82
2024/01/17 00:57:50;;;;;;;213.65;101.30;;;;;;;5.50;78.70;100589.41;4947996;28;20456;-80
2024/01/17 01:00:17;;;;;;;220.13;102.97;;;;;;;5.57;78.59;100595.97;4951650;28;20076;-81
2024/01/17 01:02:45;;;;;;;207.95;97.50;;;;;;;5.18;78.28;100516.09;4963019;28;20057;-81
2024/01/17 01:05:14;;;;;;;211.20;99.13;;;;;;;5.71;77.74;100603.75;4924136;28;20077;-81
2024/01/17 01:07:51;;;;;;;213.25;102.07;;;;;;;5.72;77.57;100602.81;4906277;28;20381;-81
2024/01/17 01:10:18;;;;;;;219.15;103.35;;;;;;;5.70;77.47;100606.50;4909692;28;20511;-81
2024/01/17 01:12:44;;;;;;;199.43;101.47;;;;;;;5.65;78.20;100606.81;4907992;28;20046;-81
2024/01/17 01:15:12;;;;;;;214.20;101.47;;;;;;;5.71;77.84;100613.47;4904702;28;20049;-79
2024/01/17 01:17:40;;;;;;;214.13;101.15;;;;;;;5.31;78.18;100543.28;4902908;28;20343;-81
2024/01/17 01:20:08;;;;;;;210.38;101.80;;;;;;;5.55;78.27;100576.78;4905221;28;20184;-84
2024/01/17 01:22:38;;;;;;;217.68;100.90;;;;;;;5.54;77.87;100606.72;4907509;28;20368;-81
2024/01/17 01:25:11;;;;;;;219.85;100.60;;;;;;;5.73;77.59;100633.47;4926039;28;20449;-81
2024/01/17 01:27:41;;;;;;;222.10;104.00;;;;;;;5.83;76.97;100646.03;4924023;28;20505;-80
2024/01/17 01:30:11;;;;;;;198.73;96.38;;;;;;;5.78;77.34;100660.34;4918574;28;20053;-83
2024/01/17 01:32:38;;;;;;;206.90;96.80;;;;;;;5.76;76.89;100645.59;4931849;28;20057;-83
2024/01/17 01:35:16;;;;;;;212.68;101.07;;;;;;;5.83;76.42;100638.13;4921638;28;20469;-82
2024/01/17 01:37:45;;;;;;;201.52;94.25;;;;;;;5.69;76.90;100632.00;4905943;28;20049;-79
2024/01/17 01:40:15;;;;;;;212.60;99.97;;;;;;;5.66;77.07;100640.13;4917694;28;20062;-81
2024/01/17 01:42:43;;;;;;;215.52;99.38;;;;;;;5.57;76.79;100602.06;4907559;28;20054;-80
2024/01/17 01:45:10;;;;;;;218.30;94.80;;;;;;;5.22;77.45;100543.91;4904769;28;20133;-81
2024/01/17 01:47:38;;;;;;;210.75;102.00;;;;;;;5.67;77.43;100611.97;4896068;28;20046;-81
2024/01/17 01:50:09;;;;;;;224.10;100.72;;;;;;;5.71;77.22;100595.88;4889521;28;20158;-82
2024/01/17 01:52:43;;;;;;;210.48;99.15;;;;;;;5.59;76.61;100553.72;4894312;28;20222;-81
2024/01/17 01:55:13;;;;;;;216.32;98.25;;;;;;;5.76;76.45;100591.13;4904239;28;20438;-81
2024/01/17 01:57:52;;;;;;;207.70;100.10;;;;;;;5.64;76.81;100573.53;4918562;28;20101;-81
2024/01/17 02:00:34;;;;;;;204.43;96.55;;;;;;;5.20;77.10;100511.59;4921484;28;20049;-79
2024/01/17 02:03:04;;;;;;;195.60;95.72;;;;;;;5.71;77.31;100587.13;4898375;28;20401;-82
2024/01/17 02:05:32;;;;;;;201.13;98.47;;;;;;;5.59;76.97;100567.72;4932890;28;20478;-81
2024/01/17 02:08:02;;;;;;;201.63;95.88;;;;;;;5.62;77.32;100570.16;4926652;28;20489;-83
2024/01/17 02:10:36;;;;;;;203.85;96.20;;;;;;;5.39;76.85;100524.34;4957847;28;20216;-82
2024/01/17 02:13:07;;;;;;;223.38;100.28;;;;;;;5.67;77.40;100581.22;4973418;28;20057;-81
2024/01/17 02:15:37;;;;;;;199.40;96.07;;;;;;;5.69;77.71;100574.03;4977238;28;20048;-81
2024/01/17 02:18:05;;;;;;;224.73;103.75;;;;;;;5.73;77.45;100585.22;4972117;28;20052;-80
2024/01/17 02:20:32;;;;;;;212.43;99.65;;;;;;;5.68;77.37;100564.47;4957222;28;20396;-80
2024/01/17 02:22:59;;;;;;;205.65;98.13;;;;;;;5.73;77.16;100572.06;4971620;28;20079;-80
2024/01/17 02:25:26;;;;;;;207.95;100.22;;;;;;;5.53;77.38;100541.81;4959501;28;20088;-80
2024/01/17 02:27:58;;;;;;;205.85;97.78;;;;;;;5.67;77.18;100570.66;4976498;28;20045;-81
2024/01/17 02:30:27;;;;;;;204.30;99.13;;;;;;;5.39;77.30;100503.28;4971235;28;20060;-80
2024/01/17 02:32:57;;;;;;;213.35;98.88;;;;;;;5.63;77.28;100545.50;4970983;28;20065;-82
2024/01/17 02:35:25;;;;;;;207.68;99.95;;;;;;;5.72;77.34;100563.28;4961152;28;20049;-79
2024/01/17 02:37:59;;;;;;;220.57;101.55;;;;;;;5.68;77.31;100560.97;4947492;28;20053;-81
2024/01/17 02:40:34;;;;;;;214.85;103.97;;;;;;;5.83;77.12;100580.16;4972719;28;20050;-81
2024/01/17 02:43:00;;;;;;;208.13;100.60;;;;;;;5.66;77.38;100555.84;4940619;28;20057;-82
2024/01/17 02:45:28;;;;;;;210.60;102.55;;;;;;;5.59;76.92;100541.41;4956861;28;20107;-80
2024/01/17 02:48:02;;;;;;;212.95;99.35;;;;;;;5.88;77.14;100585.97;4955789;28;20233;-82
2024/01/17 02:50:36;;;;;;;224.30;106.78;;;;;;;5.85;77.33;100583.50;4971936;28;20057;-80
2024/01/17 02:53:03;;;;;;;212.40;100.13;;;;;;;5.74;77.12;100561.41;4955596;28;20425;-81
2024/01/17 02:55:30;;;;;;;213.55;102.95;;;;;;;5.62;76.42;100524.53;4970829;28;20084;-79
2024/01/17 02:57:57;;;;;;;223.10;106.97;;;;;;;5.86;76.68;100567.63;4971490;28;20152;-80
2024/01/17 03:00:27;;;;;;;218.48;102.60;;;;;;;5.73;77.40;100541.28;4980434;28;20487;-80
2024/01/17 03:03:00;;;;;;;207.45;100.57;;;;;;;5.84;76.84;100543.16;4965807;28;20439;-81
2024/01/17 03:05:32;;;;;;;209.85;97.38;;;;;;;5.84;76.81;100530.00;4936838;28;20808;-81
2024/01/17 03:08:04;;;;;;;228.98;102.45;;;;;;;5.81;76.71;100517.03;4970251;28;20038;-81
2024/01/17 03:10:35;;;;;;;212.32;100.82;;;;;;;5.89;76.79;100543.69;4950628;28;20744;-81
2024/01/17 03:13:02;;;;;;;218.57;103.03;;;;;;;5.87;76.56;100527.13;4953347;28;20053;-81
2024/01/17 03:15:32;;;;;;;211.80;99.68;;;;;;;5.87;76.44;100528.94;4963839;28;20872;-81
2024/01/17 03:17:59;;;;;;;215.23;100.32;;;;;;;5.78;76.71;100499.66;4954054;28;20057;-81
2024/01/17 03:20:26;;;;;;;213.15;99.75;;;;;;;5.79;76.32;100505.75;4952820;28;20054;-84
2024/01/17 03:22:53;;;;;;;213.23;102.45;;;;;;;5.66;76.34;100474.19;4952906;28;20535;-82
2024/01/17 03:25:20;;;;;;;218.23;102.70;;;;;;;5.84;76.29;100506.28;4937921;28;20697;-83
2024/01/17 03:27:47;;;;;;;209.98;103.60;;;;;;;5.66;76.73;100473.34;4952679;28;20104;-81
2024/01/17 03:30:14;;;;;;;225.15;101.97;;;;;;;5.79;77.20;100506.59;4953836;28;20254;-82
2024/01/17 03:32:42;;;;;;;216.55;105.00;;;;;;;5.73;76.69;100482.50;4970929;28;20428;-82
2024/01/17 03:35:10;;;;;;;211.82;99.53;;;;;;;5.33;76.60;100429.97;4944512;28;20558;-82
2024/01/17 03:37:36;;;;;;;221.70;102.10;;;;;;;5.27;76.34;100415.47;4941952;28;20120;-83
2024/01/17 03:40:11;;;;;;;214.18;104.10;;;;;;;5.75;77.07;100506.91;4924591;28;20054;-83
2024/01/17 03:42:38;;;;;;;212.82;102.60;;;;;;;5.74;77.23;100492.91;4967809;28;20148;-81
2024/01/17 03:45:07;;;;;;;212.73;102.07;;;;;;;5.82;76.90;100502.06;4958978;28;20482;-83
2024/01/17 03:47:39;;;;;;;211.75;101.10;;;;;;;5.47;76.30;100435.13;4953396;28;20370;-83
2024/01/17 03:50:13;;;;;;;217.25;102.75;;;;;;;5.76;76.71;100488.38;4974781;28;20132;-82
2024/01/17 03:52:47;;;;;;;213.25;104.38;;;;;;;5.41;76.72;100416.28;4957813;28;20431;-83
2024/01/17 03:55:14;;;;;;;230.38;106.55;;;;;;;5.90;76.42;100466.34;4956348;28;20073;-82
2024/01/17 03:57:41;;;;;;;220.38;105.10;;;;;;;5.48;75.90;100393.84;4970896;28;20384;-81
2024/01/17 04:00:10;;;;;;;222.02;106.13;;;;;;;5.73;76.28;100449.09;4965318;28;20061;-83
2024/01/17 04:02:42;;;;;;;209.65;103.25;;;;;;;5.88;76.12;100451.59;4985423;28;20173;-82
2024/01/17 04:05:12;;;;;;;214.50;105.95;;;;;;;5.84;76.21;100450.13;4980423;28;20050;-82
2024/01/17 04:07:39;;;;;;;227.88;108.97;;;;;;;5.73;76.13;100422.75;4967170;28;20140;-83
2024/01/17 04:10:06;;;;;;;222.27;105.45;;;;;;;5.78;75.75;100425.91;4970220;28;20515;-81
2024/01/17 04:12:37;;;;;;;228.55;107.85;;;;;;;5.77;76.40;100421.56;4964588;28;20532;-83
2024/01/17 04:15:12;;;;;;;219.82;104.70;;;;;;;5.78;76.45;100431.16;5001803;28;20469;-82
2024/01/17 04:17:42;;;;;;;219.73;103.80;;;;;;;5.49;76.68;100392.91;4986690;28;20529;-81
2024/01/17 04:20:09;;;;;;;221.45;102.50;;;;;;;5.59;76.75;100411.53;4995970;28;20050;-81
2024/01/17 04:22:36;;;;;;;230.27;105.97;;;;;;;5.64;77.05;100420.78;4983512;28;20240;-81
2024/01/17 04:25:03;;;;;;;221.98;103.63;;;;;;;5.04;76.95;100326.75;4992447;28;20439;-82
2024/01/17 04:27:31;;;;;;;222.93;104.50;;;;;;;4.91;76.10;100303.94;5003439;28;20065;-82
2024/01/17 04:29:59;;;;;;;216.90;105.15;;;;;;;5.33;76.32;100364.19;4995695;28;20125;-83
2024/01/17 04:32:26;;;;;;;216.65;103.88;;;;;;;5.74;76.59;100431.50;4963370;28;20409;-83
2024/01/17 04:34:53;;;;;;;219.75;106.80;;;;;;;5.65;76.36;100425.06;4991869;28;20827;-79
2024/01/17 04:37:21;;;;;;;217.77;107.28;;;;;;;5.58;76.87;100413.28;4983624;28;20046;-78
2024/01/17 04:39:48;;;;;;;226.23;104.93;;;;;;;5.66;76.26;100413.59;4980823;28;20539;-80
2024/01/17 04:42:15;;;;;;;234.05;113.90;;;;;;;5.81;75.89;100418.72;4997595;28;20479;-82
2024/01/17 04:44:45;;;;;;;234.20;108.70;;;;;;;5.29;76.48;100339.88;4999156;28;20063;-81
2024/01/17 04:47:15;;;;;;;233.75;109.50;;;;;;;5.39;75.99;100355.00;4992064;28;20076;-81
2024/01/17 04:49:46;;;;;;;;;;;;;;;5.65;76.37;100403.16;5003254;28;20049;-82
2024/01/17 04:52:16;;;;;;;217.35;106.10;;;;;;;5.64;76.39;100397.06;5004600;28;19960;-81
2024/01/17 04:54:44;;;;;;;226.90;109.00;;;;;;;5.52;76.40;100382.97;4999416;28;20088;-79
2024/01/17 04:57:11;;;;;;;228.05;108.30;;;;;;;5.55;76.49;100385.38;5002774;28;20130;-80
2024/01/17 04:59:37;;;;;;;230.27;105.10;;;;;;;5.43;76.16;100372.25;5021059;28;20140;-81
2024/01/17 05:02:05;;;;;;;227.60;107.97;;;;;;;5.65;75.94;100404.00;5002950;28;20519;-81
2024/01/17 05:04:32;;;;;;;224.90;106.70;;;;;;;5.47;76.40;100384.25;4996602;28;20569;-80
2024/01/17 05:06:59;;;;;;;232.95;105.10;;;;;;;5.00;76.40;100312.13;5002518;28;20144;-81
2024/01/17 05:09:26;;;;;;;225.02;104.13;;;;;;;5.57;76.29;100401.09;4984556;28;20156;-80
2024/01/17 05:11:59;;;;;;;231.50;104.97;;;;;;;5.64;75.77;100402.34;4996041;28;20137;-82
2024/01/17 05:14:29;;;;;;;217.93;103.05;;;;;;;5.58;76.38;100397.50;4980403;28;20356;-79
2024/01/17 05:16:56;;;;;;;233.00;106.85;;;;;;;5.54;76.72;100401.31;4957246;28;20062;-80
2024/01/17 05:19:23;;;;;;;230.00;107.20;;;;;;;5.47;76.60;100384.25;4959471;28;20061;-82
2024/01/17 05:21:50;;;;;;;242.15;106.40;;;;;;;5.27;76.40;100333.88;4957964;28;20064;-80
2024/01/17 05:24:17;;;;;;;219.80;101.25;;;;;;;5.56;76.29;100376.56;4995876;28;20364;-81
2024/01/17 05:26:46;;;;;;;221.82;101.95;;;;;;;5.62;75.95;100385.78;4979762;28;20049;-80
2024/01/17 05:29:13;;;;;;;217.18;98.20;;;;;;;5.55;75.68;100363.47;4970560;28;20288;-81
2024/01/17 05:31:39;;;;;;;215.68;98.63;;;;;;;5.57;75.52;100370.31;4972738;28;20045;-79
2024/01/17 05:34:07;;;;;;;201.00;99.15;;;;;;;5.61;75.01;100381.50;5015168;28;20132;-83
2024/01/17 05:36:37;;;;;;;213.30;97.35;;;;;;;5.13;74.81;100297.16;4979878;28;20069;-81
2024/01/17 05:39:04;;;;;;;217.35;97.53;;;;;;;5.56;75.21;100383.63;4979191;28;20305;-84
2024/01/17 05:41:36;;;;;;;217.73;102.25;;;;;;;5.37;75.19;100349.03;4988614;28;20875;-82
2024/01/17 05:44:08;;;;;;;214.65;96.00;;;;;;;5.49;76.17;100385.00;4987766;28;20354;-80
2024/01/17 05:46:39;;;;;;;215.02;97.07;;;;;;;5.42;76.46;100365.31;4973979;28;20136;-82
2024/01/17 05:49:06;;;;;;;214.90;95.03;;;;;;;5.44;76.86;100371.31;4984864;28;20111;-82
2024/01/17 05:51:33;;;;;;;207.38;95.53;;;;;;;5.45;76.42;100373.00;5002531;28;20495;-84
2024/01/17 05:54:00;;;;;;;200.90;95.97;;;;;;;5.36;76.02;100340.25;4989499;28;20052;-82
2024/01/17 05:56:27;;;;;;;205.05;94.50;;;;;;;5.47;76.25;100379.00;5007133;28;20049;-81
2024/01/17 05:58:54;;;;;;;223.55;100.15;;;;;;;5.35;75.81;100355.22;4986917;28;20046;-82
2024/01/17 06:01:21;;;;;;;203.70;93.75;;;;;;;5.47;76.05;100363.22;4998371;28;20072;-81
2024/01/17 06:03:48;;;;;;;211.50;97.60;;;;;;;5.27;76.50;100339.13;4981094;28;20205;-81
2024/01/17 06:06:15;;;;;;;216.20;93.93;;;;;;;5.39;76.24;100370.78;4992102;28;20049;-80
2024/01/17 06:08:44;;;;;;;220.23;95.50;;;;;;;5.45;76.68;100367.72;4993396;28;20557;-81
2024/01/17 06:11:11;;;;;;;210.13;92.82;;;;;;;5.37;76.44;100356.91;5003435;28;20060;-81
2024/01/17 06:13:38;;;;;;;202.95;92.35;;;;;;;5.19;76.35;100346.72;4998011;28;20425;-81
2024/01/17 06:16:05;;;;;;;199.25;92.95;;;;;;;5.45;76.45;100381.72;5005377;28;20057;-81
2024/01/17 06:18:32;;;;;;;209.20;92.18;;;;;;;5.23;76.05;100324.50;4984732;28;20478;-81
2024/01/17 06:20:59;;;;;;;201.35;91.50;;;;;;;5.43;76.56;100367.00;4991283;28;20049;-80
2024/01/17 06:23:26;;;;;;;210.80;95.70;;;;;;;5.46;76.00;100366.78;4984939;28;20488;-81
2024/01/17 06:25:53;;;;;;;205.55;93.35;;;;;;;5.39;76.17;100355.00;5001546;28;20125;-81
2024/01/17 06:28:21;;;;;;;212.05;92.07;;;;;;;5.42;76.49;100376.69;4985294;28;20053;-79
2024/01/17 06:30:51;;;;;;;214.23;91.68;;;;;;;5.47;76.28;100376.38;4993415;28;20414;-81
2024/01/17 06:33:20;;;;;;;212.55;94.68;;;;;;;5.45;76.25;100365.94;4994626;28;20258;-81
2024/01/17 06:35:49;;;;;;;203.23;93.60;;;;;;;5.28;76.47;100348.69;4994336;28;20491;-84
2024/01/17 06:38:16;;;;;;;212.93;95.68;;;;;;;5.21;76.72;100342.19;4985164;28;20499;-81
2024/01/17 06:40:43;;;;;;;196.68;90.10;;;;;;;5.42;76.76;100381.97;4991878;28;20064;-81
2024/01/17 06:43:09;;;;;;;217.05;93.45;;;;;;;5.44;76.68;100384.50;4990366;28;20072;-81
2024/01/17 06:45:36;;;;;;;216.77;89.88;;;;;;;5.60;76.32;100392.13;4988036;28;20052;-81
2024/01/17 06:48:04;;;;;;;218.43;93.35;;;;;;;5.24;76.02;100354.28;4996599;28;20118;-82
2024/01/17 06:50:34;;;;;;;208.80;93.50;;;;;;;5.30;75.79;100354.72;4983950;28;20066;-81
2024/01/17 06:53:01;;;;;;;205.63;91.15;;;;;;;5.48;76.57;100393.84;4987899;28;20041;-81
2024/01/17 06:55:30;;;;;;;206.35;92.47;;;;;;;5.49;76.60;100399.00;4999607;28;20069;-82
2024/01/17 06:57:57;;;;;;;208.15;91.68;;;;;;;5.48;76.54;100396.47;4990211;28;20037;-78
2024/01/17 07:00:24;;;;;;;202.82;95.47;;;;;;;5.23;76.30;100356.09;4977842;28;20100;-83
2024/01/17 07:02:51;;;;;;;209.00;92.82;;;;;;;5.23;76.68;100371.88;5002854;28;20049;-83
2024/01/17 07:05:18;;;;;;;209.25;96.95;;;;;;;5.50;76.25;100397.22;4996133;28;20120;-81
2024/01/17 07:07:45;;;;;;;215.10;91.13;;;;;;;5.47;77.00;100389.53;5000139;28;20085;-80
2024/01/17 07:10:13;;;;;;;209.98;93.95;;;;;;;5.12;75.58;100303.38;4992602;28;20191;-82
2024/01/17 07:12:40;;;;;;;205.75;94.65;;;;;;;5.55;75.73;100385.38;4983904;28;20056;-80
2024/01/17 07:15:07;;;;;;;214.07;93.95;;;;;;;5.59;76.16;100399.19;4988487;28;20045;-81
2024/01/17 07:17:37;;;;;;;215.40;92.63;;;;;;;5.42;76.23;100375.84;4982612;28;20066;-81
2024/01/17 07:20:05;;;;;;;203.35;92.00;;;;;;;5.29;75.80;100350.41;4982788;28;20109;-82
2024/01/17 07:22:31;;;;;;;214.68;96.88;;;;;;;5.45;75.75;100380.91;4983678;28;20041;-82
2024/01/17 07:24:58;;;;;;;212.68;93.80;;;;;;;5.38;76.40;100387.53;4983722;28;20415;-80
2024/01/17 07:27:25;;;;;;;209.45;91.57;;;;;;;5.44;76.37;100395.84;4980808;28;20056;-81
2024/01/17 07:29:52;;;;;;;210.45;95.20;;;;;;;5.57;76.27;100409.81;4982322;28;20273;-81
2024/01/17 07:32:22;;;;;;;212.30;95.38;;;;;;;5.60;76.12;100410.56;5005279;28;20494;-81
2024/01/17 07:34:48;;;;;;;208.85;95.03;;;;;;;5.10;76.14;100331.59;4990288;28;20139;-81
2024/01/17 07:37:16;;;;;;;216.18;97.03;;;;;;;5.43;76.90;100390.69;4999027;28;20053;-81
2024/01/17 07:39:49;;;;;;;222.48;91.40;;;;;;;5.32;76.91;100365.97;4982667;28;20439;-82
2024/01/17 07:42:18;;;;;;;215.23;92.90;;;;;;;5.48;76.44;100386.78;4985499;28;20045;-81
2024/01/17 07:44:45;;;;;;;219.00;92.05;;;;;;;5.56;76.04;100404.69;4978707;28;20139;-81
2024/01/17 07:47:12;;;;;;;218.48;91.65;;;;;;;5.64;76.62;100417.31;4970010;28;20060;-80
2024/01/17 07:49:39;;;;;;;216.20;93.88;;;;;;;5.10;75.92;100340.31;5009093;28;20164;-78
2024/01/17 07:52:12;;;;;;;209.50;92.97;;;;;;;5.38;76.29;100384.91;4997460;28;20077;-79
2024/01/17 07:54:38;;;;;;;223.25;92.65;;;;;;;5.48;76.55;100417.53;4987539;28;20580;-80
2024/01/17 07:57:05;;;;;;;215.20;92.05;;;;;;;5.59;76.39;100419.44;4982484;28;20495;-79
2024/01/17 07:59:35;;;;;;;221.85;96.55;;;;;;;5.52;76.38;100401.41;4975617;28;20049;-78
2024/01/17 08:02:03;;;;;;;203.13;92.65;;;;;;;5.40;77.07;100383.00;4998764;28;20064;-81
2024/01/17 08:04:30;;;;;;;217.20;96.50;;;;;;;5.23;77.09;100353.44;4984368;28;20060;-82
2024/01/17 08:07:00;;;;;;;215.90;94.90;;;;;;;5.19;76.78;100359.03;4986181;28;20111;-83
2024/01/17 08:09:32;;;;;;;225.98;98.13;;;;;;;5.61;76.51;100396.44;4990959;28;20440;-80
2024/01/17 08:11:59;;;;;;;224.20;95.80;;;;;;;5.37;77.46;100397.25;4986348;28;20404;-81
2024/01/17 08:14:26;;;;;;;224.10;95.07;;;;;;;5.30;77.89;100373.13;4998865;28;20487;-81
2024/01/17 08:16:53;;;;;;;211.07;93.13;;;;;;;5.43;78.17;100409.13;4976930;28;20054;-81
2024/01/17 08:19:21;;;;;;;211.43;93.80;;;;;;;5.41;78.33;100401.31;4984587;28;20487;-80
2024/01/17 08:21:53;;;;;;;205.75;94.00;;;;;;;5.33;78.35;100372.91;4994052;28;20042;-80
2024/01/17 08:24:22;;;;;;;209.40;93.90;;;;;;;5.44;78.26;100382.69;4977144;28;20053;-82
2024/01/17 08:26:49;;;;;;;215.68;95.88;;;;;;;5.41;78.00;100388.16;4983342;28;20049;-79
2024/01/17 08:29:16;;;;;;;217.55;95.82;;;;;;;5.46;78.22;100382.56;4978135;28;20061;-80
2024/01/17 08:31:44;;;;;;;212.05;91.32;;;;;;;5.35;78.07;100359.66;4984129;28;20432;-81
2024/01/17 08:34:14;;;;;;;213.75;96.57;;;;;;;5.25;78.45;100343.66;5002042;28;20049;-80
2024/01/17 08:36:42;;;;;;;215.60;94.97;;;;;;;5.50;78.65;100368.25;4979752;28;20077;-80
2024/01/17 08:39:11;;;;;;;211.63;97.40;;;;;;;5.39;78.57;100355.84;4981585;28;20053;-81
2024/01/17 08:41:41;;;;;;;222.90;96.95;;;;;;;5.63;78.02;100373.47;5002763;28;20389;-81
2024/01/17 08:44:08;;;;;;;225.00;95.85;;;;;;;5.54;78.18;100370.56;5004504;28;20377;-80
2024/01/17 08:46:44;;;;;;;211.10;98.07;;;;;;;5.37;78.13;100341.13;4986774;28;20455;-81
2024/01/17 08:49:16;;;;;;;212.57;97.38;;;;;;;5.57;78.24;100357.16;5004682;28;20053;-79
2024/01/17 08:51:43;;;;;;;229.85;100.38;;;;;;;5.58;78.11;100350.09;5004198;28;20059;-80
2024/01/17 08:54:13;;;;;;;218.60;99.25;;;;;;;5.49;77.70;100320.00;5010393;28;20071;-81
2024/01/17 08:56:40;;;;;;;231.80;104.47;;;;;;;5.57;78.37;100330.00;5008282;28;20048;-81
2024/01/17 08:59:09;;;;;;;217.07;94.63;;;;;;;5.66;77.70;100336.41;5019411;28;20160;-81
2024/01/17 09:01:37;;;;;;;213.68;97.68;;;;;;;5.55;77.57;100305.56;5011808;28;20183;-79
2024/01/17 09:04:05;;;;;;;216.10;100.03;;;;;;;5.47;77.66;100278.94;5006901;28;20056;-81
2024/01/17 09:06:36;;;;;;;230.55;99.68;;;;;;;5.84;77.11;100323.66;5020783;28;20131;-81
2024/01/17 09:09:03;;;;;;;224.63;95.60;;;;;;;5.77;76.87;100324.09;5001435;28;20414;-82
2024/01/17 09:11:33;;;;;;;220.02;98.68;;;;;;;5.75;77.25;100336.56;5003173;28;20059;-82
2024/01/17 09:14:00;;;;;;;216.02;96.13;;;;;;;5.85;76.82;100342.00;5026915;28;20053;-82
2024/01/17 09:16:27;;;;;;;220.23;97.72;;;;;;;5.88;76.94;100325.13;4983127;28;20131;-82
2024/01/17 09:18:54;;;;;;;209.32;95.13;;;;;;;5.76;77.10;100324.22;4975156;28;20517;-81
2024/01/17 09:21:22;;;;;;;217.80;97.18;;;;;;;5.74;77.47;100319.06;4992542;28;20057;-82
2024/01/17 09:23:49;;;;;;;222.90;98.65;;;;;;;5.62;77.58;100285.72;4989918;28;20045;-82
2024/01/17 09:26:18;;;;;;;213.98;95.35;;;;;;;5.61;76.62;100252.44;4983220;28;20057;-82
2024/01/17 09:28:45;;;;;;;234.65;98.45;;;;;;;5.85;76.92;100315.66;4986908;28;20384;-80
2024/01/17 09:31:12;;;;;;;225.18;95.47;;;;;;;5.54;77.06;100264.38;4971409;28;20510;-81
2024/01/17 09:33:42;;;;;;;228.85;97.38;;;;;;;5.73;77.01;100295.50;4983412;28;20046;-81
2024/01/17 09:36:09;;;;;;;226.63;100.15;;;;;;;5.70;77.44;100298.31;4990378;28;20057;-81
2024/01/17 09:38:36;;;;;;;232.57;99.15;;;;;;;5.82;77.61;100304.50;4977685;28;20079;-82
2024/01/17 09:41:04;;;;;;;220.10;100.05;;;;;;;5.66;77.36;100284.56;4979035;28;20049;-82
2024/01/17 09:43:31;;;;;;;229.05;98.47;;;;;;;5.49;77.17;100262.09;4985608;28;20085;-81
2024/01/17 09:46:00;;;;;;;229.73;96.63;;;;;;;5.76;77.98;100297.88;4979158;28;20057;-82
2024/01/17 09:48:30;;;;;;;224.80;101.72;;;;;;;5.86;77.80;100312.06;5002868;28;20237;-82
2024/01/17 09:51:00;;;;;;;219.27;100.10;;;;;;;5.79;77.85;100301.13;4989709;28;20136;-80
2024/01/17 09:53:29;;;;;;;232.95;96.90;;;;;;;5.48;77.35;100247.22;4985861;28;20060;-80
2024/01/17 09:56:02;;;;;;;238.70;100.13;;;;;;;5.81;77.77;100319.47;4987414;28;20403;-80
2024/01/17 09:58:33;;;;;;;237.45;98.18;;;;;;;5.89;77.12;100316.25;4982604;28;20897;-83
2024/01/17 10:01:08;;;;;;;229.25;100.50;;;;;;;6.16;76.75;100337.09;5006677;28;20281;-81
2024/01/17 10:03:39;;;;;;;240.18;100.75;;;;;;;6.03;77.28;100329.28;4984355;28;20092;-81
2024/01/17 10:06:08;;;;;;;235.90;103.50;;;;;;;5.94;78.09;100314.16;4983962;28;20062;-79
2024/01/17 10:08:39;;;;;;;227.88;102.30;;;;;;;6.01;78.61;100320.66;4965827;28;20065;-82
2024/01/17 10:11:06;;;;;;;224.15;100.28;;;;;;;5.99;78.20;100312.00;4971332;28;20041;-79
2024/01/17 10:13:33;;;;;;;245.60;99.60;;;;;;;6.15;77.95;100323.09;4985887;28;20060;-81
2024/01/17 10:16:01;;;;;;;233.55;100.68;;;;;;;6.02;77.71;100290.72;4990697;28;20511;-81
2024/01/17 10:18:31;;;;;;;226.68;100.97;;;;;;;6.10;77.70;100304.16;4978919;28;20078;-78
2024/01/17 10:20:58;;;;;;;237.38;100.20;;;;;;;5.49;78.11;100208.59;4964263;28;20050;-79
2024/01/17 10:23:26;;;;;;;225.90;98.28;;;;;;;5.83;78.13;100264.88;4961212;28;20057;-81
2024/01/17 10:25:53;;;;;;;218.63;97.05;;;;;;;6.12;78.17;100290.88;4994623;28;20549;-78
2024/01/17 10:28:20;;;;;;;246.10;99.40;;;;;;;6.10;78.04;100261.16;4982661;28;20066;-79
2024/01/17 10:30:48;;;;;;;240.02;99.28;;;;;;;5.53;77.85;100158.22;4970915;28;20141;-80
2024/01/17 10:33:18;;;;;;;222.40;97.40;;;;;;;6.15;78.54;100259.00;4972634;28;20081;-80
2024/01/17 10:35:45;;;;;;;237.27;101.72;;;;;;;5.93;78.31;100210.53;4989455;28;20046;-80
2024/01/17 10:38:12;;;;;;;247.10;100.50;;;;;;;6.10;78.96;100226.91;4990398;28;20042;-80
2024/01/17 10:40:42;;;;;;;248.65;103.15;;;;;;;5.90;79.00;100204.66;4989508;28;20483;-80
2024/01/17 10:43:10;;;;;;;232.90;99.03;;;;;;;5.88;79.97;100183.69;4982486;28;20057;-81
2024/01/17 10:45:44;;;;;;;240.32;98.63;;;;;;;5.71;79.25;100134.94;4988687;28;20132;-80
2024/01/17 10:48:12;;;;;;;239.10;100.22;;;;;;;6.14;78.94;100205.47;4984267;28;20081;-81
2024/01/17 10:50:39;;;;;;;242.93;103.47;;;;;;;5.95;79.33;100181.47;4985988;28;20121;-79
2024/01/17 10:53:08;;;;;;;239.30;103.05;;;;;;;5.95;79.76;100190.22;5000871;28;20136;-80
2024/01/17 10:55:38;;;;;;;248.07;104.45;;;;;;;6.02;80.13;100195.00;4999749;28;20053;-80
2024/01/17 10:58:12;;;;;;;235.77;101.43;;;;;;;6.01;81.23;100204.69;4974729;28;20053;-79
2024/01/17 11:00:43;;;;;;;251.65;106.72;;;;;;;5.84;80.61;100160.34;4993059;28;20045;-82
2024/01/17 11:03:17;;;;;;;244.10;107.32;;;;;;;5.94;80.60;100171.88;5008165;28;20061;-82
2024/01/17 11:05:51;;;;;;;275.10;109.63;;;;;;;6.02;80.32;100181.81;5006875;28;20338;-80
2024/01/17 11:08:21;;;;;;;261.20;111.35;;;;;;;5.65;81.54;100124.84;5003602;28;20041;-82
2024/01/17 11:10:52;;;;;;;262.83;111.30;;;;;;;5.97;81.27;100171.63;4994529;28;20053;-80
2024/01/17 11:13:25;;;;;;;266.60;113.40;;;;;;;5.96;81.94;100169.97;4989144;28;20212;-80